Time;durP1;ratioP1;P1;durP2;ratioP2;P2;SDS_P1;SDS_P2;PMS_P1;PMS_P2;Temp;Humidity;BMP_temperature;BMP_pressure;BME280_temperature;BME280_humidity;BME280_pressure;Samples;Min_cycle;Max_cycle;Signal;HPM_P1;HPM_P2
2024/03/11 00:00:37;;;;;;;;;;;;;;;21.46;35.62;99638.69;4098368;29;19929;-58
2024/03/11 00:02:39;;;;;;;;;;;;;;;21.46;35.48;99645.88;4099613;28;19922;-58
2024/03/11 00:04:44;;;;;;;;;;;;;;;21.46;35.77;99646.72;4099343;28;19958;-58
2024/03/11 00:06:48;;;;;;;;;;;;;;;21.46;35.81;99651.22;4099285;28;19977;-59
2024/03/11 00:08:52;;;;;;;;;;;;;;;21.41;35.73;99659.72;4099137;28;19965;-60
2024/03/11 00:10:59;;;;;;;;;;;;;;;21.40;35.96;99660.72;4099203;28;20017;-60
2024/03/11 00:13:01;;;;;;;;;;;;;;;21.39;35.95;99661.69;4099230;28;19922;-60
2024/03/11 00:15:07;;;;;;;;;;;;;;;21.42;35.64;99671.25;4099283;28;19948;-59
2024/03/11 00:17:08;;;;;;;;;;;;;;;21.42;35.62;99680.09;4099608;28;19933;-58
2024/03/11 00:19:10;;;;;;;;;;;;;;;21.41;35.80;99689.13;4099303;29;20353;-60
2024/03/11 00:21:11;;;;;;;;;;;;;;;21.40;35.95;99687.44;4099287;29;19981;-58
2024/03/11 00:23:13;;;;;;;;;;;;;;;21.41;35.69;99694.50;4098926;29;20350;-60
2024/03/11 00:25:15;;;;;;;;;;;;;;;21.41;35.92;99686.47;4098549;28;19945;-56
2024/03/11 00:27:17;;;;;;;;;;;;;;;21.43;35.79;99688.97;4099281;28;19923;-60
2024/03/11 00:29:19;;;;;;;;;;;;;;;21.41;35.82;99680.25;4099278;28;19922;-59
2024/03/11 00:31:27;;;;;;;;;;;;;;;21.40;35.76;99682.09;4097945;29;20024;-60
2024/03/11 00:33:29;;;;;;;;;;;;;;;21.39;35.70;99685.78;4099311;28;20305;-60
2024/03/11 00:35:31;;;;;;;;;;;;;;;21.37;35.64;99690.41;4099256;28;20429;-60
2024/03/11 00:37:32;;;;;;;;;;;;;;;21.35;35.69;99692.38;4098638;28;19929;-60
2024/03/11 00:39:34;;;;;;;;;;;;;;;21.34;35.77;99680.88;4099194;28;20441;-60
2024/03/11 00:41:36;;;;;;;;;;;;;;;21.36;35.76;99691.41;4099101;28;19969;-58
2024/03/11 00:43:38;;;;;;;;;;;;;;;21.36;35.77;99686.06;4099029;28;20005;-58
2024/03/11 00:45:40;;;;;;;;;;;;;;;21.35;35.99;99692.38;4098988;28;19929;-58
2024/03/11 00:47:41;;;;;;;;;;;;;;;21.36;35.95;99689.59;4099086;28;19957;-58
2024/03/11 00:49:45;;;;;;;;;;;;;;;21.34;35.95;99686.22;4099034;29;19980;-58
2024/03/11 00:51:49;;;;;;;;;;;;;;;21.37;35.93;99693.09;4098853;29;19922;-61
2024/03/11 00:53:51;;;;;;;;;;;;;;;21.38;35.81;99686.75;4099186;29;19922;-60
2024/03/11 00:55:53;;;;;;;;;;;;;;;21.38;35.95;99692.94;4099106;29;20294;-60
2024/03/11 00:57:54;;;;;;;;;;;;;;;21.37;35.56;99685.94;4099139;28;19929;-59
2024/03/11 00:59:56;;;;;;;;;;;;;;;21.38;35.58;99692.94;4098894;28;19923;-59
2024/03/11 01:01:58;;;;;;;;;;;;;;;21.35;35.63;99685.22;4099061;28;19922;-59
2024/03/11 01:04:00;;;;;;;;;;;;;;;21.32;35.58;99684.69;4099221;28;20002;-59
2024/03/11 01:06:02;;;;;;;;;;;;;;;21.30;35.62;99692.88;4098418;28;19957;-59
2024/03/11 01:08:04;;;;;;;;;;;;;;;21.32;35.98;99684.69;4098874;28;19926;-60
2024/03/11 01:10:06;;;;;;;;;;;;;;;21.33;35.81;99689.03;4098793;28;20009;-58
2024/03/11 01:12:08;;;;;;;;;;;;;;;21.32;35.78;99688.19;4098950;28;19922;-58
2024/03/11 01:14:09;;;;;;;;;;;;;;;21.35;35.66;99697.75;4098813;29;20014;-58
2024/03/11 01:16:11;;;;;;;;;;;;;;;21.35;35.90;99693.25;4098951;28;19965;-57
2024/03/11 01:18:14;;;;;;;;;;;;;;;21.35;35.70;99697.75;4098844;29;19973;-58
2024/03/11 01:20:15;;;;;;;;;;;;;;;21.36;35.79;99694.94;4098636;28;20118;-58
2024/03/11 01:22:17;;;;;;;;;;;;;;;21.35;35.73;99703.94;4098729;28;19922;-57
2024/03/11 01:24:20;;;;;;;;;;;;;;;21.33;35.60;99703.25;4098885;28;19926;-58
2024/03/11 01:26:21;;;;;;;;;;;;;;;21.33;35.42;99699.75;4098856;28;19922;-58
2024/03/11 01:28:23;;;;;;;;;;;;;;;21.31;35.71;99707.91;4098787;28;19930;-59
2024/03/11 01:30:25;;;;;;;;;;;;;;;21.28;35.53;99708.22;4098602;29;20289;-59
2024/03/11 01:32:28;;;;;;;;;;;;;;;21.24;35.99;99704.16;4098786;28;20397;-59
2024/03/11 01:34:30;;;;;;;;;;;;;;;21.27;35.73;99708.38;4098355;28;19958;-58
2024/03/11 01:36:34;;;;;;;;;;;;;;;21.30;35.62;99713.41;4099574;28;20469;-59
2024/03/11 01:38:36;;;;;;;;;;;;;;;21.32;35.78;99711.44;4101725;28;20264;-60
2024/03/11 01:40:37;;;;;;;;;;;;;;;21.33;35.80;99718.47;4101774;28;19926;-58
2024/03/11 01:42:42;;;;;;;;;;;;;;;21.31;35.75;99718.63;4101441;28;19922;-59
2024/03/11 01:44:44;;;;;;;;;;;;;;;21.32;35.61;99714.94;4101666;28;19949;-59
2024/03/11 01:46:47;;;;;;;;;;;;;;;21.34;35.61;99717.47;4101530;29;19946;-59
2024/03/11 01:48:49;;;;;;;;;;;;;;;21.31;35.75;99715.09;4101508;29;19922;-59
2024/03/11 01:50:51;;;;;;;;;;;;;;;21.29;35.80;99714.38;4100082;29;20313;-60
2024/03/11 01:52:59;;;;;;;;;;;;;;;21.29;35.54;99714.38;4101651;28;20350;-59
2024/03/11 01:55:02;;;;;;;;;;;;;;;21.27;35.89;99709.19;4101496;28;19922;-60
2024/03/11 01:57:08;;;;;;;;;;;;;;;21.25;35.80;99713.00;4101473;28;19930;-59
2024/03/11 01:59:10;;;;;;;;;;;;;;;21.25;35.64;99718.34;4100211;29;20389;-60
2024/03/11 02:01:14;;;;;;;;;;;;;;;21.26;35.68;99717.38;4101541;28;19923;-60
2024/03/11 02:03:20;;;;;;;;;;;;;;;21.29;35.76;99717.91;4101225;28;19922;-59
2024/03/11 02:05:22;;;;;;;;;;;;;;;21.29;35.67;99720.59;4100847;28;20009;-59
2024/03/11 02:07:24;;;;;;;;;;;;;;;21.27;35.58;99722.56;4101195;28;19926;-60
2024/03/11 02:09:25;;;;;;;;;;;;;;;21.28;35.57;99726.09;4101335;28;19922;-59
2024/03/11 02:11:27;;;;;;;;;;;;;;;21.29;35.49;99728.63;4101239;28;19923;-58
2024/03/11 02:13:30;;;;;;;;;;;;;;;21.27;35.55;99725.25;4100882;28;19923;-60
2024/03/11 02:15:32;;;;;;;;;;;;;;;21.29;35.63;99733.97;4101184;28;19923;-59
2024/03/11 02:17:33;;;;;;;;;;;;;;;21.28;35.70;99736.78;4101152;28;20001;-58
2024/03/11 02:19:38;;;;;;;;;;;;;;;21.25;35.76;99737.91;4100781;28;19922;-58
2024/03/11 02:21:45;;;;;;;;;;;;;;;21.23;35.46;99735.38;4101105;28;19954;-58
2024/03/11 02:23:48;;;;;;;;;;;;;;;21.20;35.86;99742.88;4100837;28;19923;-59
2024/03/11 02:25:49;;;;;;;;;;;;;;;21.23;35.85;99747.94;4101046;28;19926;-58
2024/03/11 02:27:56;;;;;;;;;;;;;;;21.26;35.69;99744.13;4101039;28;19929;-59
2024/03/11 02:29:57;;;;;;;;;;;;;;;21.24;35.68;99749.63;4101022;28;20430;-59
2024/03/11 02:31:59;;;;;;;;;;;;;;;21.25;35.44;99750.44;4100790;29;20009;-58
2024/03/11 02:34:01;;;;;;;;;;;;;;;21.25;35.70;99747.78;4100428;28;19977;-59
2024/03/11 02:36:03;;;;;;;;;;;;;;;21.24;35.70;99752.28;4100933;29;19922;-59
2024/03/11 02:38:05;;;;;;;;;;;;;;;21.23;35.61;99754.09;4100784;28;19926;-58
2024/03/11 02:40:09;;;;;;;;;;;;;;;21.26;35.71;99755.63;4100795;29;19926;-59
2024/03/11 02:42:10;;;;;;;;;;;;;;;21.27;35.48;99761.84;4100962;28;20405;-59
2024/03/11 02:44:13;;;;;;;;;;;;;;;21.26;35.26;99758.31;4100570;28;19969;-57
2024/03/11 02:46:15;;;;;;;;;;;;;;;21.25;35.52;99756.63;4100821;28;19932;-59
2024/03/11 02:48:17;;;;;;;;;;;;;;;21.25;35.26;99758.47;4099465;28;19932;-59
2024/03/11 02:50:18;;;;;;;;;;;;;;;21.21;35.26;99761.44;4100557;28;19922;-59
2024/03/11 02:52:23;;;;;;;;;;;;;;;21.20;35.38;99767.78;4100626;28;19975;-58
2024/03/11 02:54:26;;;;;;;;;;;;;;;21.25;35.65;99771.84;4100721;29;20268;-59
2024/03/11 02:56:27;;;;;;;;;;;;;;;21.21;35.59;99777.47;4100536;29;20032;-58
2024/03/11 02:58:30;;;;;;;;;;;;;;;21.23;35.47;99782.69;4100612;28;19929;-58
2024/03/11 03:00:33;;;;;;;;;;;;;;;21.25;35.64;99774.50;4100239;28;19928;-58
2024/03/11 03:02:35;;;;;;;;;;;;;;;21.22;35.34;99775.66;4100176;28;20342;-58
2024/03/11 03:04:39;;;;;;;;;;;;;;;21.21;35.70;99774.78;4100263;28;20274;-59
2024/03/11 03:06:41;;;;;;;;;;;;;;;21.23;35.65;99780.03;4100441;28;19977;-59
2024/03/11 03:08:43;;;;;;;;;;;;;;;21.25;35.62;99779.88;4100404;28;20403;-58
2024/03/11 03:10:44;;;;;;;;;;;;;;;21.22;35.47;99781.00;4100202;28;19933;-59
2024/03/11 03:12:46;;;;;;;;;;;;;;;21.19;35.39;99774.13;4100368;29;20016;-58
2024/03/11 03:14:48;;;;;;;;;;;;;;;21.17;35.52;99776.09;4100196;28;19972;-59
2024/03/11 03:16:49;;;;;;;;;;;;;;;21.18;35.71;99775.09;4100021;28;19969;-58
2024/03/11 03:18:51;;;;;;;;;;;;;;;21.18;35.60;99785.81;4100410;28;19973;-58
2024/03/11 03:20:52;;;;;;;;;;;;;;;21.20;35.59;99777.63;4100160;28;20424;-58
2024/03/11 03:22:54;;;;;;;;;;;;;;;21.22;35.64;99778.31;4100315;28;19958;-60
2024/03/11 03:24:56;;;;;;;;;;;;;;;21.20;35.37;99786.50;4100246;28;20008;-59
2024/03/11 03:26:58;;;;;;;;;;;;;;;21.18;35.67;99780.44;4100081;28;20318;-58
2024/03/11 03:29:01;;;;;;;;;;;;;;;21.22;35.31;99781.84;4100131;28;19929;-58
2024/03/11 03:31:04;;;;;;;;;;;;;;;21.22;35.58;99779.16;4099829;28;20416;-58
2024/03/11 03:33:06;;;;;;;;;;;;;;;21.24;35.46;99779.03;4099953;28;19926;-58
2024/03/11 03:35:08;;;;;;;;;;;;;;;21.25;35.19;99777.19;4100300;29;19926;-58
2024/03/11 03:37:09;;;;;;;;;;;;;;;21.22;35.43;99779.16;4099889;28;20283;-59
2024/03/11 03:39:11;;;;;;;;;;;;;;;21.22;35.60;99778.31;4099789;28;19922;-58
2024/03/11 03:41:13;;;;;;;;;;;;;;;21.20;35.36;99780.31;4099680;28;19977;-58
2024/03/11 03:43:14;;;;;;;;;;;;;;;21.17;35.53;99778.75;4099747;28;19922;-58
2024/03/11 03:45:21;;;;;;;;;;;;;;;21.20;35.35;99788.31;4099502;28;20308;-58
2024/03/11 03:47:23;;;;;;;;;;;;;;;21.21;35.29;99784.66;4099850;28;19926;-58
2024/03/11 03:49:24;;;;;;;;;;;;;;;21.20;35.51;99785.66;4099652;28;19929;-60
2024/03/11 03:51:26;;;;;;;;;;;;;;;21.21;35.65;99788.16;4099420;28;19927;-58
2024/03/11 03:53:28;;;;;;;;;;;;;;;21.20;35.70;99788.31;4098496;29;19945;-60
2024/03/11 03:55:30;;;;;;;;;;;;;;;21.21;35.35;99790.00;4099609;28;19996;-58
2024/03/11 03:57:32;;;;;;;;;;;;;;;21.22;35.45;99792.53;4099762;29;19934;-60
2024/03/11 03:59:34;;;;;;;;;;;;;;;21.23;35.64;99794.22;4099273;28;19929;-60
2024/03/11 04:01:35;;;;;;;;;;;;;;;21.22;35.33;99800.56;4099643;28;20374;-60
2024/03/11 04:03:37;;;;;;;;;;;;;;;21.21;35.66;99795.34;4099505;28;20444;-60
2024/03/11 04:05:40;;;;;;;;;;;;;;;21.21;35.67;99804.22;4098200;29;19926;-59
2024/03/11 04:07:41;;;;;;;;;;;;;;;21.19;35.61;99802.69;4099391;28;19922;-60
2024/03/11 04:09:43;;;;;;;;;;;;;;;21.16;35.63;99798.47;4099370;28;19978;-59
2024/03/11 04:11:45;;;;;;;;;;;;;;;21.17;35.71;99799.31;4099396;28;19922;-59
2024/03/11 04:13:49;;;;;;;;;;;;;;;21.19;35.28;99805.34;4099299;29;19926;-60
2024/03/11 04:15:52;;;;;;;;;;;;;;;21.18;35.48;99812.53;4097744;29;19922;-59
2024/03/11 04:17:53;;;;;;;;;;;;;;;21.19;35.33;99808.88;4099453;28;20294;-59
2024/03/11 04:19:56;;;;;;;;;;;;;;;21.20;35.56;99810.56;4099293;28;19922;-60
2024/03/11 04:21:59;;;;;;;;;;;;;;;21.20;35.54;99807.91;4099527;29;20025;-57
2024/03/11 04:24:00;;;;;;;;;;;;;;;21.22;35.58;99808.56;4099336;28;19926;-58
2024/03/11 04:26:02;;;;;;;;;;;;;;;21.22;35.45;99819.28;4099415;28;19922;-58
2024/03/11 04:28:05;;;;;;;;;;;;;;;21.19;35.57;99819.56;4099117;28;20029;-58
2024/03/11 04:30:07;;;;;;;;;;;;;;;21.19;35.45;99819.56;4098703;28;19926;-58
2024/03/11 04:32:09;;;;;;;;;;;;;;;21.18;35.68;99811.69;4099548;28;19922;-59
2024/03/11 04:34:11;;;;;;;;;;;;;;;21.17;35.22;99813.53;4099027;28;19933;-59
2024/03/11 04:36:13;;;;;;;;;;;;;;;21.15;35.67;99812.00;4099390;28;20313;-59
2024/03/11 04:38:15;;;;;;;;;;;;;;;21.14;35.49;99812.97;4098005;29;19922;-59
2024/03/11 04:40:16;;;;;;;;;;;;;;;21.16;35.46;99814.50;4099047;28;19941;-58
2024/03/11 04:42:19;;;;;;;;;;;;;;;21.18;35.49;99811.69;4099290;29;20009;-58
2024/03/11 04:44:20;;;;;;;;;;;;;;;21.17;35.59;99807.34;4098925;28;19926;-58
2024/03/11 04:46:23;;;;;;;;;;;;;;;21.17;35.46;99812.69;4099324;28;20396;-59
2024/03/11 04:48:24;;;;;;;;;;;;;;;21.15;35.43;99818.16;4098860;28;19923;-59
2024/03/11 04:50:27;;;;;;;;;;;;;;;21.18;35.46;99809.88;4098913;28;20374;-59
2024/03/11 04:52:29;;;;;;;;;;;;;;;21.18;35.42;99812.53;4099315;28;19929;-58
2024/03/11 04:54:33;;;;;;;;;;;;;;;21.17;35.26;99810.84;4099215;28;19976;-58
2024/03/11 04:56:35;;;;;;;;;;;;;;;21.17;35.59;99812.69;4099078;28;20313;-58
2024/03/11 04:58:37;;;;;;;;;;;;;;;21.15;35.73;99814.66;4098837;29;19926;-58
2024/03/11 05:00:39;;;;;;;;;;;;;;;21.14;35.64;99823.66;4099041;28;19926;-58
2024/03/11 05:02:41;;;;;;;;;;;;;;;21.13;35.62;99819.31;4099035;28;20309;-58
2024/03/11 05:04:43;;;;;;;;;;;;;;;21.13;35.67;99825.50;4099008;28;19960;-59
2024/03/11 05:06:44;;;;;;;;;;;;;;;21.15;35.44;99830.72;4098832;28;20329;-58
2024/03/11 05:08:46;;;;;;;;;;;;;;;21.15;35.31;99830.72;4099342;29;19923;-58
2024/03/11 05:10:47;;;;;;;;;;;;;;;21.14;35.69;99827.19;4098779;28;19981;-58
2024/03/11 05:12:49;;;;;;;;;;;;;;;21.13;35.38;99830.00;4101233;28;19933;-57
2024/03/11 05:14:51;;;;;;;;;;;;;;;21.16;35.56;99843.09;4102081;28;20341;-57
2024/03/11 05:16:54;;;;;;;;;;;;;;;21.17;35.48;99836.75;4101008;29;19923;-58
2024/03/11 05:18:58;;;;;;;;;;;;;;;21.17;35.60;99839.44;4101926;28;19953;-58
2024/03/11 05:20:59;;;;;;;;;;;;;;;21.16;35.42;99846.59;4101933;28;19970;-58
2024/03/11 05:23:01;;;;;;;;;;;;;;;21.14;35.50;99837.91;4101884;28;19996;-58
2024/03/11 05:25:06;;;;;;;;;;;;;;;21.12;35.66;99839.00;4102207;29;19941;-58
2024/03/11 05:27:08;;;;;;;;;;;;;;;21.10;35.65;99849.84;4101655;28;20020;-60
2024/03/11 05:29:12;;;;;;;;;;;;;;;21.06;35.56;99843.94;4101635;28;20341;-58
2024/03/11 05:31:14;;;;;;;;;;;;;;;21.07;35.50;99847.47;4102184;28;20120;-59
2024/03/11 05:33:16;;;;;;;;;;;;;;;21.08;35.65;99853.66;4101890;28;19994;-58
2024/03/11 05:35:19;;;;;;;;;;;;;;;21.08;35.49;99843.78;4100828;29;19961;-59
2024/03/11 05:37:29;;;;;;;;;;;;;;;21.08;35.49;99851.81;4101714;28;20465;-59
2024/03/11 05:39:30;;;;;;;;;;;;;;;21.09;35.46;99855.34;4101798;28;19922;-57
2024/03/11 05:41:32;;;;;;;;;;;;;;;21.10;35.43;99851.69;4101511;29;19922;-57
2024/03/11 05:43:33;;;;;;;;;;;;;;;21.12;35.62;99857.72;4101696;28;19929;-58
2024/03/11 05:45:35;;;;;;;;;;;;;;;21.10;35.57;99857.88;4101711;29;19930;-58
2024/03/11 05:47:36;;;;;;;;;;;;;;;;;;4101439;28;19969;-57
2024/03/11 05:49:39;;;;;;;;;;;;;;;21.12;35.51;99857.72;4101563;29;19936;-58
2024/03/11 05:51:41;;;;;;;;;;;;;;;21.09;35.51;99856.19;4101535;28;19929;-57
2024/03/11 05:53:52;;;;;;;;;;;;;;;21.08;35.70;99856.34;4100197;29;19985;-58
2024/03/11 05:55:54;;;;;;;;;;;;;;;21.06;35.54;99860.00;4101336;28;19930;-59
2024/03/11 05:57:59;;;;;;;;;;;;;;;21.08;35.76;99859.00;4101567;28;19922;-59
2024/03/11 06:00:01;;;;;;;;;;;;;;;21.12;35.61;99857.72;4101356;28;20290;-57
2024/03/11 06:02:02;;;;;;;;;;;;;;;21.10;35.24;99855.19;4101547;29;19972;-57
2024/03/11 06:04:04;;;;;;;;;;;;;;;21.11;35.50;99861.41;4101338;29;19953;-58
2024/03/11 06:06:05;;;;;;;;;;;;;;;;;;4099921;29;20068;-57
2024/03/11 06:08:13;;;;;;;;;;;;;;;21.14;35.35;99869.97;4101050;29;19937;-57
2024/03/11 06:10:15;;;;;;;;;;;;;;;21.14;35.08;99872.66;4100893;28;19989;-57
2024/03/11 06:12:18;;;;;;;;;;;;;;;21.16;35.42;99875.19;4101043;28;19960;-59
2024/03/11 06:14:20;;;;;;;;;;;;;;;21.13;35.25;99873.63;4101378;28;19922;-58
2024/03/11 06:16:24;;;;;;;;;;;;;;;21.10;35.42;99871.25;4101130;28;20046;-58
2024/03/11 06:18:25;;;;;;;;;;;;;;;21.06;35.29;99877.88;4101065;29;19930;-58
2024/03/11 06:20:27;;;;;;;;;;;;;;;21.08;35.14;99883.06;4101284;28;20429;-59
2024/03/11 06:22:28;;;;;;;;;;;;;;;21.05;35.41;99885.03;4101211;28;19977;-59
2024/03/11 06:24:31;;;;;;;;;;;;;;;21.06;35.45;99883.22;4100070;28;19923;-58
2024/03/11 06:26:35;;;;;;;;;;;;;;;21.07;35.18;99884.91;4101156;28;20305;-58
2024/03/11 06:28:38;;;;;;;;;;;;;;;21.08;35.47;99889.25;4100682;28;20374;-58
2024/03/11 06:30:43;;;;;;;;;;;;;;;21.06;35.56;99896.59;4101119;28;19922;-59
2024/03/11 06:32:48;;;;;;;;;;;;;;;21.10;35.29;99889.13;4100942;28;20008;-59
2024/03/11 06:34:51;;;;;;;;;;;;;;;21.10;35.27;99900.66;4100920;28;20028;-59
2024/03/11 06:36:53;;;;;;;;;;;;;;;21.10;35.29;99907.84;4100572;28;20107;-59
2024/03/11 06:38:55;;;;;;;;;;;;;;;21.14;35.11;99912.75;4100893;28;19968;-58
2024/03/11 06:40:57;;;;;;;;;;;;;;;21.13;35.39;99916.41;4100840;28;19945;-58
2024/03/11 06:42:58;;;;;;;;;;;;;;;21.10;35.25;99915.84;4100941;28;19926;-58
2024/03/11 06:45:00;;;;;;;;;;;;;;;21.07;35.47;99925.00;4100730;28;19926;-58
2024/03/11 06:47:02;;;;;;;;;;;;;;;21.06;35.63;99929.50;4100669;28;19923;-57
2024/03/11 06:49:05;;;;;;;;;;;;;;;21.06;35.22;99937.53;4099691;29;19968;-58
2024/03/11 06:51:08;;;;;;;;;;;;;;;21.05;35.44;99933.16;4100600;28;19957;-58
2024/03/11 06:53:10;;;;;;;;;;;;;;;21.10;35.21;99932.72;4100641;28;20385;-58
2024/03/11 06:55:16;;;;;;;;;;;;;;;21.11;35.43;99930.91;4100537;28;19926;-59
2024/03/11 06:57:23;;;;;;;;;;;;;;;21.12;35.41;99935.25;4100301;28;20012;-59
2024/03/11 06:59:24;;;;;;;;;;;;;;;21.10;35.38;99937.25;4100615;28;20005;-59
2024/03/11 07:01:29;;;;;;;;;;;;;;;21.11;35.40;99944.28;4100523;28;19931;-59
2024/03/11 07:03:31;;;;;;;;;;;;;;;21.10;35.15;99946.09;4099164;29;19923;-58
2024/03/11 07:05:33;;;;;;;;;;;;;;;21.10;35.31;99959.47;4100597;28;19922;-58
2024/03/11 07:07:37;;;;;;;;;;;;;;;21.12;35.55;99959.31;4100190;28;20028;-58
2024/03/11 07:09:39;;;;;;;;;;;;;;;21.13;35.22;99963.69;4099854;29;19926;-59
2024/03/11 07:11:42;;;;;;;;;;;;;;;21.10;35.30;99956.78;4100397;28;19946;-58
2024/03/11 07:13:44;;;;;;;;;;;;;;;21.05;35.27;99961.72;4100021;28;19977;-58
2024/03/11 07:15:47;;;;;;;;;;;;;;;21.05;35.32;99969.75;4100260;28;20009;-57
2024/03/11 07:17:48;;;;;;;;;;;;;;;21.06;35.29;99961.56;4100018;28;20025;-58
2024/03/11 07:19:50;;;;;;;;;;;;;;;21.08;35.05;99963.28;4100126;28;20424;-58
2024/03/11 07:21:57;;;;;;;;;;;;;;;21.10;35.36;99964.81;4100242;28;19970;-58
2024/03/11 07:23:59;;;;;;;;;;;;;;;21.10;35.17;99972.00;4099811;28;20364;-58
2024/03/11 07:26:01;;;;;;;;;;;;;;;21.13;35.28;99971.72;4099922;28;19930;-57
2024/03/11 07:28:04;;;;;;;;;;;;;;;21.13;35.18;99977.91;4100184;28;19949;-57
2024/03/11 07:30:07;;;;;;;;;;;;;;;21.12;35.41;99981.56;4099938;28;19922;-58
2024/03/11 07:32:11;;;;;;;;;;;;;;;21.16;34.98;99982.97;4098823;29;20056;-57
2024/03/11 07:34:12;;;;;;;;;;;;;;;21.13;35.00;99990.41;4099719;28;19923;-57
2024/03/11 07:36:15;;;;;;;;;;;;;;;21.10;35.17;99985.38;4100052;28;19922;-58
2024/03/11 07:38:17;;;;;;;;;;;;;;;21.08;35.00;99987.34;4099295;28;20013;-58
2024/03/11 07:40:19;;;;;;;;;;;;;;;21.06;35.19;99987.47;4099812;28;19938;-58
2024/03/11 07:42:24;;;;;;;;;;;;;;;21.07;35.07;99994.53;4099863;29;19923;-58
2024/03/11 07:44:26;;;;;;;;;;;;;;;21.08;35.29;99995.34;4099818;28;20330;-58
2024/03/11 07:46:29;;;;;;;;;;;;;;;21.12;35.06;99999.41;4099833;28;20386;-58
2024/03/11 07:48:31;;;;;;;;;;;;;;;21.12;35.13;100005.63;4099624;28;19926;-58
2024/03/11 07:50:32;;;;;;;;;;;;;;;21.14;34.93;100008.16;4099929;28;20025;-58
2024/03/11 07:52:35;;;;;;;;;;;;;;;21.12;35.12;100010.97;4099342;28;19945;-58
2024/03/11 07:54:37;;;;;;;;;;;;;;;21.14;34.97;100009.03;4099718;28;19922;-58
2024/03/11 07:56:39;;;;;;;;;;;;;;;21.14;34.91;100014.38;4098419;29;20357;-58
2024/03/11 07:58:41;;;;;;;;;;;;;;;21.15;35.05;100018.72;4099689;28;19922;-58
2024/03/11 08:00:43;;;;;;;;;;;;;;;21.14;34.99;100014.38;4099661;28;19922;-59
2024/03/11 08:02:45;;;;;;;;;;;;;;;21.08;35.15;100017.56;4099671;28;19989;-58
2024/03/11 08:04:47;;;;;;;;;;;;;;;21.06;34.93;100019.56;4099681;28;19957;-57
2024/03/11 08:06:52;;;;;;;;;;;;;;;21.08;34.71;100024.75;4099107;28;19922;-58
2024/03/11 08:08:54;;;;;;;;;;;;;;;21.07;34.76;100029.28;4099343;28;20440;-59
2024/03/11 08:10:56;;;;;;;;;;;;;;;21.10;34.99;100034.34;4099078;28;19923;-58
2024/03/11 08:12:58;;;;;;;;;;;;;;;21.13;34.86;100034.06;4099275;28;19973;-58
2024/03/11 08:14:59;;;;;;;;;;;;;;;21.14;34.74;100030.41;4099551;28;19964;-58
2024/03/11 08:17:02;;;;;;;;;;;;;;;21.13;34.81;100038.56;4099186;28;19929;-58
2024/03/11 08:19:05;;;;;;;;;;;;;;;21.15;34.79;100036.59;4099483;28;19922;-58
2024/03/11 08:21:09;;;;;;;;;;;;;;;21.17;35.02;100032.78;4098909;29;19922;-58
2024/03/11 08:23:11;;;;;;;;;;;;;;;21.15;35.10;100040.09;4099568;28;19929;-58
2024/03/11 08:25:15;;;;;;;;;;;;;;;21.14;35.04;100046.47;4099487;28;20445;-58
2024/03/11 08:27:16;;;;;;;;;;;;;;;21.14;34.94;100057.16;4099343;28;19930;-58
2024/03/11 08:29:18;;;;;;;;;;;;;;;21.14;34.99;100067.84;4099463;28;20285;-58
2024/03/11 08:31:20;;;;;;;;;;;;;;;21.12;35.12;100064.47;4099370;29;19926;-57
2024/03/11 08:33:22;;;;;;;;;;;;;;;21.10;35.02;100065.59;4099212;28;20017;-57
2024/03/11 08:35:24;;;;;;;;;;;;;;;21.12;34.86;100067.13;4098904;28;19942;-58
2024/03/11 08:37:26;;;;;;;;;;;;;;;21.15;35.02;100066.84;4099082;28;20420;-57
2024/03/11 08:39:28;;;;;;;;;;;;;;;21.18;34.96;100066.56;4097873;29;19926;-57
2024/03/11 08:41:34;;;;;;;;;;;;;;;21.20;34.98;100067.28;4099210;28;19933;-60
2024/03/11 08:43:38;;;;;;;;;;;;;;;21.21;34.62;100070.78;4099235;28;19923;-57
2024/03/11 08:45:41;;;;;;;;;;;;;;;21.23;34.82;100067.00;4099048;28;20016;-58
2024/03/11 08:47:44;;;;;;;;;;;;;;;21.22;34.64;100069.81;4102073;28;20417;-57
2024/03/11 08:49:46;;;;;;;;;;;;;;;21.25;35.00;100076.72;4100956;29;19926;-58
2024/03/11 08:51:48;;;;;;;;;;;;;;;21.24;34.71;100081.22;4102712;28;20473;-58
2024/03/11 08:53:49;;;;;;;;;;;;;;;21.21;34.99;100078.81;4102371;28;19928;-58
2024/03/11 08:55:50;;;;;;;;;;;;;;;21.20;34.77;100088.69;4102260;28;20309;-57
2024/03/11 08:57:58;;;;;;;;;;;;;;;21.19;34.69;100096.81;4102219;28;19922;-58
2024/03/11 09:00:06;;;;;;;;;;;;;;;21.18;34.88;100101.34;4102450;28;20009;-58
2024/03/11 09:02:09;;;;;;;;;;;;;;;21.19;34.69;100104.84;4102260;28;20017;-58
2024/03/11 09:04:10;;;;;;;;;;;;;;;21.19;34.81;100103.03;4101868;28;19982;-58
2024/03/11 09:06:12;;;;;;;;;;;;;;;21.21;34.85;100097.53;4101047;29;19923;-57
2024/03/11 09:08:14;;;;;;;;;;;;;;;21.22;34.71;100100.06;4102280;28;19923;-57
2024/03/11 09:10:15;;;;;;;;;;;;;;;21.25;34.79;100100.78;4101906;28;19927;-58
2024/03/11 09:12:17;;;;;;;;;;;;;;;21.22;34.58;100107.25;4102044;28;19926;-57
2024/03/11 09:14:19;;;;;;;;;;;;;;;21.24;34.70;100105.28;4101997;28;19922;-58
2024/03/11 09:16:20;;;;;;;;;;;;;;;21.25;34.68;100112.31;4102070;29;19995;-57
2024/03/11 09:18:26;;;;;;;;;;;;;;;21.27;35.01;100114.88;4101913;28;20321;-58
2024/03/11 09:20:33;;;;;;;;;;;;;;;21.26;34.83;100111.31;4102094;28;19965;-58
2024/03/11 09:22:34;;;;;;;;;;;;;;;21.28;34.61;100117.38;4102081;28;19928;-58
2024/03/11 09:24:36;;;;;;;;;;;;;;;21.25;34.95;100116.81;4102117;28;19922;-57
2024/03/11 09:26:39;;;;;;;;;;;;;;;21.23;34.94;100117.81;4100674;29;19922;-57
2024/03/11 09:28:40;;;;;;;;;;;;;;;21.23;34.96;100122.31;4101836;28;19926;-57
2024/03/11 09:30:42;;;;;;;;;;;;;;;21.27;34.55;100117.53;4101928;28;19923;-57
2024/03/11 09:32:49;;;;;;;;;;;;;;;21.30;34.87;100117.25;4101754;28;19929;-58
2024/03/11 09:34:51;;;;;;;;;;;;;;;21.29;35.08;100119.09;4101591;28;20434;-58
2024/03/11 09:36:53;;;;;;;;;;;;;;;21.29;35.00;100137.81;4101941;28;19942;-59
2024/03/11 09:38:54;;;;;;;;;;;;;;;21.29;34.76;100131.59;4101795;28;19923;-56
2024/03/11 09:41:14;;;;;;;;;;;;;;;21.31;34.79;100133.16;4101663;28;19926;-58
2024/03/11 09:43:21;;;;;;;;;;;;;;;21.32;34.79;100136.69;4101770;28;20356;-58
2024/03/11 09:45:28;;;;;;;;;;;;;;;21.31;34.66;100133.16;4101621;28;19922;-57
2024/03/11 09:47:32;;;;;;;;;;;;;;;21.33;34.57;100136.53;4101532;28;19922;-58
2024/03/11 09:49:35;;;;;;;;;;;;;;;21.31;34.48;100135.00;4101150;28;19922;-58
2024/03/11 09:51:38;;;;;;;;;;;;;;;21.30;34.68;100136.84;4101627;28;19922;-58
2024/03/11 09:53:40;;;;;;;;;;;;;;;21.29;34.71;100129.78;4101499;28;19930;-58
2024/03/11 09:55:47;;;;;;;;;;;;;;;21.28;34.78;100136.13;4101567;28;20012;-58
2024/03/11 09:57:56;;;;;;;;;;;;;;;21.30;34.94;100134.16;4101373;28;20381;-58
2024/03/11 09:59:59;;;;;;;;;;;;;;;21.31;34.61;100141.19;4101456;28;20412;-57
2024/03/11 10:02:01;;;;;;;;;;;;;;;21.31;34.65;100137.66;4101057;29;20294;-58
2024/03/11 10:04:05;;;;;;;;;;;;;;;21.32;34.90;100131.34;4101297;28;19922;-60
2024/03/11 10:06:13;;;;;;;;;;;;;;;21.33;34.65;100146.41;4100999;28;20004;-58
2024/03/11 10:08:25;;;;;;;;;;;;;;;21.32;34.61;100142.88;4101147;28;20286;-57
2024/03/11 10:10:29;;;;;;;;;;;;;;;21.34;34.78;100146.25;4100894;28;19923;-57
2024/03/11 10:12:34;;;;;;;;;;;;;;;21.34;34.75;100148.94;4101129;28;19923;-57
2024/03/11 10:14:40;;;;;;;;;;;;;;;21.33;34.63;100155.25;4101399;29;20400;-56
2024/03/11 10:16:48;;;;;;;;;;;;;;;21.31;34.65;100157.25;4100607;28;20256;-58
2024/03/11 10:19:00;;;;;;;;;;;;;;;21.32;34.72;100150.88;4101166;28;19944;-58
2024/03/11 10:21:06;;;;;;;;;;;;;;;21.32;34.78;100156.25;4101191;28;20005;-58
2024/03/11 10:23:09;;;;;;;;;;;;;;;21.33;34.83;100159.78;4100990;29;20926;-58
2024/03/11 10:25:13;;;;;;;;;;;;;;;21.35;34.72;100155.09;4100968;28;19922;-58
2024/03/11 10:27:19;;;;;;;;;;;;;;;21.36;34.49;100157.66;4101150;28;19929;-58
2024/03/11 10:29:29;;;;;;;;;;;;;;;21.38;34.56;100155.69;4100903;28;19922;-58
2024/03/11 10:31:36;;;;;;;;;;;;;;;21.36;34.64;100152.31;4100588;28;19923;-57
2024/03/11 10:33:42;;;;;;;;;;;;;;;21.37;34.52;100147.81;4101093;28;20278;-58
2024/03/11 10:35:43;;;;;;;;;;;;;;;21.37;34.96;100156.69;4100953;28;19922;-58
2024/03/11 10:37:50;;;;;;;;;;;;;;;21.38;34.94;100152.16;4100748;28;19923;-58